KLNN

Willoughby Lost Nation Municipal Airport

Willoughby, Ohio, USA
METAR KLNN 151855Z AUTO 28018G27KT 10SM SCT022 OVC032 01/M05 A2973 RMK AO1 T00081054
Observed Flight Rules
Feb-15 @ 18:55 UTC (11 minutes ago) Visual Flight Rules
Wind Visibility Clouds
280° at 18 knots
 Gusting to 27 knots
10 miles
  • Scattered at 2,200' AGL
  • Overcast at 3,200' AGL
Temperatures Readings
Current 1°C / 34°F
Dewpoint -5°C / 23°F
Humidity 65%
Altimeter 29.73" Hg
Pressure 1006.82 hPa
Elevation 191
METAR KLNN 151855Z AUTO 28018G27KT 10SM SCT022 OVC032 01/M05 A2973 RMK AO1 T00081054
Observed Flight Rules
Feb-15 @ 18:55 UTC
(11 minutes ago)
VFR
Wind Visibility
280° at 18 knots
 Gusting to 27 knots
10 miles
Clouds
  • Scattered at 2,200' AGL
  • Overcast at 3,200' AGL
Temperature Dewpoint
1°C / 34°F -5°C / 23°F
Humidity Altimeter Pressure
65% 29.73" Hg 1006.82 hPa